Time;durP1;ratioP1;P1;durP2;ratioP2;P2;SDS_P1;SDS_P2;PMS_P1;PMS_P2;Temp;Humidity;BMP_temperature;BMP_pressure;BME280_temperature;BME280_humidity;BME280_pressure;Samples;Min_cycle;Max_cycle;Signal;HPM_P1;HPM_P2
2022/07/13 00:00:29;;;;;;;1.05;0.80;;;;;;;;;;5031996;28;20083;-65
2022/07/13 00:02:54;;;;;;;1.80;0.80;;;;;;;;;;5034105;28;20069;-65
2022/07/13 00:05:20;;;;;;;0.70;0.70;;;;;;;;;;5033854;28;20029;-65
2022/07/13 00:07:45;;;;;;;0.90;0.90;;;;;;;;;;5034403;28;20042;-65
2022/07/13 00:10:11;;;;;;;1.27;0.73;;;;;;;;;;5033854;28;20021;-64
2022/07/13 00:12:37;;;;;;;1.92;0.90;;;;;;;;;;5033804;28;20038;-64
2022/07/13 00:15:03;;;;;;;0.80;0.80;;;;;;;;;;5033776;28;20030;-64
2022/07/13 00:17:28;;;;;;;1.33;0.80;;;;;;;;;;5034265;28;20033;-65
2022/07/13 00:19:53;;;;;;;1.02;0.93;;;;;;;;;;5033705;28;20091;-65
2022/07/13 00:22:19;;;;;;;1.83;0.90;;;;;;;;;;5033594;28;20041;-65
2022/07/13 00:24:44;;;;;;;1.67;0.88;;;;;;;;;;5033668;28;20053;-65
2022/07/13 00:27:10;;;;;;;1.73;1.10;;;;;;;;;;5033821;28;20468;-64
2022/07/13 00:29:35;;;;;;;3.10;1.33;;;;;;;;;;5053831;28;20029;-65
2022/07/13 00:32:00;;;;;;;1.20;1.10;;;;;;;;;;5035559;28;20029;-65
2022/07/13 00:34:26;;;;;;;1.95;0.93;;;;;;;;;;5053477;28;20029;-64
2022/07/13 00:36:51;;;;;;;1.40;0.95;;;;;;;;;;5035608;28;20032;-65
2022/07/13 00:39:16;;;;;;;1.10;1.00;;;;;;;;;;5035598;28;20035;-72
2022/07/13 00:41:46;;;;;;;2.53;1.17;;;;;;;;;;5038033;28;20048;-73
2022/07/13 00:44:11;;;;;;;4.65;1.10;;;;;;;;;;5057388;28;20085;-72
2022/07/13 00:46:37;;;;;;;1.30;1.20;;;;;;;;;;5036646;28;20067;-73
2022/07/13 00:49:03;;;;;;;5.07;1.13;;;;;;;;;;5053328;28;20440;-73
2022/07/13 00:51:28;;;;;;;3.97;0.88;;;;;;;;;;5018951;28;20049;-73
2022/07/13 00:53:54;;;;;;;2.40;1.40;;;;;;;;;;5053307;28;20064;-73
2022/07/13 00:56:20;;;;;;;2.22;0.98;;;;;;;;;;5037647;28;20410;-73
2022/07/13 00:58:46;;;;;;;6.10;1.77;;;;;;;;;;5057259;28;20044;-73
2022/07/13 01:01:11;;;;;;;3.85;1.75;;;;;;;;;;5039665;28;20497;-73
2022/07/13 01:03:36;;;;;;;3.08;1.33;;;;;;;;;;5039575;28;20072;-73
2022/07/13 01:06:02;;;;;;;6.40;2.13;;;;;;;;;;5057371;28;20037;-73
2022/07/13 01:08:27;;;;;;;7.57;2.53;;;;;;;;;;5057079;28;20037;-73
2022/07/13 01:10:53;;;;;;;6.38;3.10;;;;;;;;;;5039693;28;20025;-74
2022/07/13 01:13:20;;;;;;;5.85;2.58;;;;;;;;;;5057529;28;20067;-73
2022/07/13 01:15:45;;;;;;;5.78;2.88;;;;;;;;;;5057231;28;20045;-73
2022/07/13 01:18:11;;;;;;;6.03;2.35;;;;;;;;;;5039050;28;20035;-73
2022/07/13 01:20:37;;;;;;;9.75;2.65;;;;;;;;;;5039063;28;20041;-74
2022/07/13 01:23:09;;;;;;;6.07;2.25;;;;;;;;;;5038857;28;20055;-73
2022/07/13 01:25:34;;;;;;;4.43;2.00;;;;;;;;;;5057067;28;20033;-64
2022/07/13 01:28:00;;;;;;;5.60;2.15;;;;;;;;;;5039197;28;20036;-64
2022/07/13 01:30:25;;;;;;;2.38;1.63;;;;;;;;;;5038926;28;20453;-64
2022/07/13 01:32:51;;;;;;;4.65;2.20;;;;;;;;;;5038732;28;20479;-65
2022/07/13 01:35:17;;;;;;;7.55;2.42;;;;;;;;;;5056558;28;20479;-65
2022/07/13 01:37:43;;;;;;;4.00;1.77;;;;;;;;;;5056564;28;20040;-64
2022/07/13 01:40:10;;;;;;;6.47;1.65;;;;;;;;;;5022300;28;20035;-65
2022/07/13 01:42:43;;;;;;;3.72;1.75;;;;;;;;;;5038522;28;20514;-65
2022/07/13 01:45:09;;;;;;;2.78;1.70;;;;;;;;;;5056398;28;20052;-64
2022/07/13 01:47:41;;;;;;;3.00;1.42;;;;;;;;;;5038750;28;20463;-64
2022/07/13 01:50:08;;;;;;;1.33;1.05;;;;;;;;;;5038451;28;20033;-65
2022/07/13 01:52:33;;;;;;;1.70;1.02;;;;;;;;;;5056271;28;20028;-65
2022/07/13 01:54:59;;;;;;;1.40;1.20;;;;;;;;;;5056511;28;20379;-65
2022/07/13 01:57:24;;;;;;;1.52;0.95;;;;;;;;;;5038273;28;20033;-65
2022/07/13 01:59:51;;;;;;;1.30;0.80;;;;;;;;;;5034988;28;20056;-64
2022/07/13 02:02:16;;;;;;;2.47;0.95;;;;;;;;;;5034836;28;20080;-65
2022/07/13 02:04:42;;;;;;;2.38;0.77;;;;;;;;;;5034896;28;20083;-65
2022/07/13 02:07:07;;;;;;;1.60;1.05;;;;;;;;;;5033474;28;20447;-64
2022/07/13 02:09:33;;;;;;;1.20;1.10;;;;;;;;;;5036598;28;20040;-64
2022/07/13 02:11:58;;;;;;;1.00;0.85;;;;;;;;;;5034767;28;20025;-64
2022/07/13 02:14:24;;;;;;;2.75;1.05;;;;;;;;;;5035926;28;20506;-65
2022/07/13 02:16:49;;;;;;;1.60;1.30;;;;;;;;;;5035928;28;20430;-65
2022/07/13 02:19:15;;;;;;;1.00;1.00;;;;;;;;;;5034570;28;20472;-65
2022/07/13 02:21:40;;;;;;;2.45;1.10;;;;;;;;;;5035796;28;20033;-65
2022/07/13 02:24:08;;;;;;;1.60;0.90;;;;;;;;;;5035683;28;20038;-65
2022/07/13 02:26:33;;;;;;;2.15;1.10;;;;;;;;;;5034509;28;20033;-66
2022/07/13 02:28:58;;;;;;;2.10;1.00;;;;;;;;;;5035998;28;20033;-65
2022/07/13 02:31:24;;;;;;;2.17;0.90;;;;;;;;;;5017893;28;20021;-66
2022/07/13 02:33:49;;;;;;;2.60;1.00;;;;;;;;;;5034310;28;20442;-65
2022/07/13 02:36:14;;;;;;;1.02;1.02;;;;;;;;;;5035812;28;20100;-66
2022/07/13 02:38:40;;;;;;;3.15;0.88;;;;;;;;;;5035488;28;20454;-65
2022/07/13 02:41:05;;;;;;;1.83;1.00;;;;;;;;;;5034222;28;20057;-66
2022/07/13 02:43:31;;;;;;;1.20;1.10;;;;;;;;;;5035345;28;20369;-65
2022/07/13 02:45:56;;;;;;;0.98;0.90;;;;;;;;;;5035651;28;20029;-65
2022/07/13 02:48:22;;;;;;;1.42;0.80;;;;;;;;;;5034056;28;20037;-65
2022/07/13 02:50:49;;;;;;;3.40;0.80;;;;;;;;;;5046756;23;20057;-65
2022/07/13 02:53:16;;;;;;;1.40;0.93;;;;;;;;;;5041188;28;20032;-65
2022/07/13 02:55:41;;;;;;;1.75;0.63;;;;;;;;;;5057134;28;20045;-65
2022/07/13 02:58:07;;;;;;;0.95;0.90;;;;;;;;;;5057103;28;20040;-65
2022/07/13 03:00:33;;;;;;;1.60;0.95;;;;;;;;;;5057042;28;20467;-65
2022/07/13 03:02:59;;;;;;;1.90;1.00;;;;;;;;;;5074820;28;20140;-65
2022/07/13 03:05:24;;;;;;;2.65;0.80;;;;;;;;;;5074873;28;20474;-65
2022/07/13 03:07:50;;;;;;;6.25;1.25;;;;;;;;;;5075123;28;20470;-65
2022/07/13 03:10:16;;;;;;;4.57;1.10;;;;;;;;;;5056809;28;20067;-65
2022/07/13 03:12:42;;;;;;;2.88;1.00;;;;;;;;;;5056747;28;20501;-65
2022/07/13 03:15:07;;;;;;;5.80;1.13;;;;;;;;;;5074939;28;20067;-65
2022/07/13 03:17:33;;;;;;;2.40;1.23;;;;;;;;;;5074851;28;20041;-65
2022/07/13 03:20:03;;;;;;;4.15;1.10;;;;;;;;;;5058009;28;20039;-65
2022/07/13 03:22:28;;;;;;;5.10;1.27;;;;;;;;;;5058173;28;20556;-65
2022/07/13 03:24:54;;;;;;;1.75;1.10;;;;;;;;;;5056633;28;20024;-65
2022/07/13 03:27:19;;;;;;;2.15;0.95;;;;;;;;;;5056518;28;20040;-65
2022/07/13 03:29:44;;;;;;;2.85;1.17;;;;;;;;;;5056581;28;20487;-66
2022/07/13 03:32:10;;;;;;;3.90;1.15;;;;;;;;;;5039850;28;20036;-65
2022/07/13 03:34:36;;;;;;;0.98;0.95;;;;;;;;;;5056367;28;20035;-73
2022/07/13 03:37:02;;;;;;;1.48;0.80;;;;;;;;;;5056314;28;20036;-73
2022/07/13 03:39:28;;;;;;;1.05;0.95;;;;;;;;;;5055577;28;20036;-73
2022/07/13 03:41:55;;;;;;;1.55;0.93;;;;;;;;;;5055194;28;20566;-73
2022/07/13 03:44:21;;;;;;;1.58;0.90;;;;;;;;;;5055020;28;20112;-73
2022/07/13 03:46:46;;;;;;;1.50;1.00;;;;;;;;;;5055072;28;20478;-73
2022/07/13 03:49:13;;;;;;;0.82;0.82;;;;;;;;;;5055047;28;20090;-73
2022/07/13 03:51:40;;;;;;;1.55;1.17;;;;;;;;;;5051521;28;20032;-73
2022/07/13 03:54:06;;;;;;;1.20;1.10;;;;;;;;;;5051653;28;20041;-73
2022/07/13 03:56:32;;;;;;;1.02;0.95;;;;;;;;;;5051934;28;20368;-73
2022/07/13 03:58:58;;;;;;;2.15;1.17;;;;;;;;;;5051593;28;20039;-73
2022/07/13 04:01:23;;;;;;;4.32;1.00;;;;;;;;;;5052902;28;20041;-73
2022/07/13 04:03:51;;;;;;;1.55;1.08;;;;;;;;;;5051440;28;20113;-72
2022/07/13 04:06:17;;;;;;;1.33;1.10;;;;;;;;;;5051448;28;20033;-73
2022/07/13 04:08:43;;;;;;;2.38;1.08;;;;;;;;;;5051487;28;20032;-73
2022/07/13 04:11:08;;;;;;;2.20;1.20;;;;;;;;;;5052794;28;20037;-74
2022/07/13 04:13:33;;;;;;;0.95;0.95;;;;;;;;;;5052462;28;20071;-74
2022/07/13 04:15:59;;;;;;;1.67;1.00;;;;;;;;;;5052408;28;20553;-65
2022/07/13 04:18:28;;;;;;;1.25;0.82;;;;;;;;;;5052675;28;20033;-66
2022/07/13 04:20:54;;;;;;;1.90;1.10;;;;;;;;;;5052906;28;20479;-66
2022/07/13 04:23:19;;;;;;;1.15;1.10;;;;;;;;;;5051172;28;20033;-65
2022/07/13 04:25:47;;;;;;;2.95;1.08;;;;;;;;;;5036005;28;20104;-66
2022/07/13 04:28:12;;;;;;;2.50;1.05;;;;;;;;;;5053210;28;20029;-66
2022/07/13 04:30:37;;;;;;;1.58;0.88;;;;;;;;;;5049434;28;20047;-65
2022/07/13 04:33:03;;;;;;;1.20;1.00;;;;;;;;;;5050146;28;20037;-65
2022/07/13 04:35:30;;;;;;;1.20;0.95;;;;;;;;;;5050216;28;20144;-66
2022/07/13 04:37:55;;;;;;;3.40;1.00;;;;;;;;;;5051004;28;20546;-64
2022/07/13 04:40:22;;;;;;;1.02;0.90;;;;;;;;;;5051599;28;20078;-65
2022/07/13 04:42:47;;;;;;;1.02;0.90;;;;;;;;;;5051673;28;20110;-66
2022/07/13 04:45:18;;;;;;;2.15;1.10;;;;;;;;;;5053390;28;20101;-65
2022/07/13 04:47:46;;;;;;;1.70;1.10;;;;;;;;;;5052385;28;20033;-65
2022/07/13 04:50:11;;;;;;;2.20;1.02;;;;;;;;;;5052087;28;20044;-66
2022/07/13 04:52:37;;;;;;;0.60;0.60;;;;;;;;;;5051968;28;20663;-65
2022/07/13 04:55:03;;;;;;;0.85;0.85;;;;;;;;;;5052616;28;20033;-65
2022/07/13 04:57:30;;;;;;;1.30;0.95;;;;;;;;;;5052274;28;20037;-65
2022/07/13 04:59:56;;;;;;;2.10;0.88;;;;;;;;;;5036059;28;20017;-65
2022/07/13 05:02:21;;;;;;;0.75;0.75;;;;;;;;;;5053129;28;20430;-65
2022/07/13 05:04:46;;;;;;;0.80;0.80;;;;;;;;;;5052010;28;20391;-65
2022/07/13 05:07:12;;;;;;;0.88;0.88;;;;;;;;;;5052292;28;20112;-65
2022/07/13 05:09:38;;;;;;;0.85;0.85;;;;;;;;;;5051929;28;20021;-66
2022/07/13 05:12:04;;;;;;;3.22;1.00;;;;;;;;;;5051868;28;20037;-65
2022/07/13 05:14:30;;;;;;;0.90;0.90;;;;;;;;;;5052163;28;20037;-65
2022/07/13 05:16:56;;;;;;;1.90;0.90;;;;;;;;;;5051813;28;20037;-65
2022/07/13 05:19:22;;;;;;;0.98;0.93;;;;;;;;;;5052671;28;20083;-65
2022/07/13 05:21:48;;;;;;;3.38;0.95;;;;;;;;;;5051817;28;20380;-65
2022/07/13 05:24:15;;;;;;;1.35;0.90;;;;;;;;;;5051701;28;20029;-65
2022/07/13 05:26:40;;;;;;;3.50;1.02;;;;;;;;;;5052996;28;20052;-65
2022/07/13 05:29:06;;;;;;;1.00;0.95;;;;;;;;;;5051694;28;20025;-65
2022/07/13 05:31:34;;;;;;;1.15;1.05;;;;;;;;;;5051682;28;20040;-65
2022/07/13 05:34:01;;;;;;;1.33;1.15;;;;;;;;;;5060566;23;20061;-66
2022/07/13 05:36:30;;;;;;;1.67;0.93;;;;;;;;;;5051715;28;20033;-65
2022/07/13 05:38:56;;;;;;;2.03;1.00;;;;;;;;;;5052880;28;20483;-65
2022/07/13 05:41:22;;;;;;;1.10;1.10;;;;;;;;;;5035981;28;20048;-65
2022/07/13 05:43:47;;;;;;;1.10;1.00;;;;;;;;;;5055173;28;20041;-65
2022/07/13 05:46:13;;;;;;;1.35;1.23;;;;;;;;;;5055190;28;20040;-65
2022/07/13 05:48:39;;;;;;;1.10;1.00;;;;;;;;;;5055141;28;20021;-65
2022/07/13 05:51:05;;;;;;;0.90;0.90;;;;;;;;;;5055107;28;20087;-65
2022/07/13 05:53:30;;;;;;;1.83;0.82;;;;;;;;;;5055098;28;20029;-65
2022/07/13 05:55:57;;;;;;;1.90;1.08;;;;;;;;;;5055582;28;20061;-66
2022/07/13 05:58:22;;;;;;;2.40;0.80;;;;;;;;;;5057393;28;20025;-66
2022/07/13 06:00:48;;;;;;;0.95;0.93;;;;;;;;;;5055192;28;20402;-65
2022/07/13 06:03:14;;;;;;;1.00;0.80;;;;;;;;;;5056290;28;20044;-65
2022/07/13 06:05:39;;;;;;;0.90;0.90;;;;;;;;;;5056075;28;20116;-66
2022/07/13 06:08:04;;;;;;;0.82;0.82;;;;;;;;;;5056309;28;20009;-65
2022/07/13 06:10:30;;;;;;;1.08;0.98;;;;;;;;;;5056230;28;20033;-65
2022/07/13 06:12:55;;;;;;;1.65;0.70;;;;;;;;;;5056193;28;20033;-66
2022/07/13 06:15:21;;;;;;;1.17;1.08;;;;;;;;;;5055911;28;20064;-66
2022/07/13 06:17:46;;;;;;;1.05;1.05;;;;;;;;;;5055818;28;20134;-66
2022/07/13 06:20:11;;;;;;;1.52;1.20;;;;;;;;;;5055814;28;20043;-66
2022/07/13 06:22:37;;;;;;;1.00;0.80;;;;;;;;;;5054405;28;20024;-65
2022/07/13 06:25:03;;;;;;;1.23;1.10;;;;;;;;;;5055723;28;20140;-65
2022/07/13 06:27:28;;;;;;;0.80;0.80;;;;;;;;;;5055903;28;20111;-65
2022/07/13 06:29:54;;;;;;;0.98;0.98;;;;;;;;;;5055906;28;20028;-65
2022/07/13 06:32:19;;;;;;;3.22;0.80;;;;;;;;;;5055606;28;20111;-65
2022/07/13 06:34:45;;;;;;;0.90;0.90;;;;;;;;;;5037459;28;20099;-65
2022/07/13 06:37:10;;;;;;;1.02;0.93;;;;;;;;;;5037599;28;20124;-65
2022/07/13 06:39:35;;;;;;;4.03;0.98;;;;;;;;;;5055410;28;20383;-65
2022/07/13 06:42:01;;;;;;;3.83;0.95;;;;;;;;;;5055667;28;20089;-65
2022/07/13 06:44:27;;;;;;;1.20;1.00;;;;;;;;;;5055538;28;20169;-65
2022/07/13 06:46:52;;;;;;;0.88;0.88;;;;;;;;;;5055324;28;20404;-65
2022/07/13 06:49:17;;;;;;;1.35;1.00;;;;;;;;;;5054057;28;20446;-65
2022/07/13 06:51:43;;;;;;;1.13;0.98;;;;;;;;;;5055188;28;20083;-65
2022/07/13 06:54:08;;;;;;;1.40;0.85;;;;;;;;;;5054331;28;20108;-65
2022/07/13 06:56:33;;;;;;;1.00;1.00;;;;;;;;;;5055369;28;20098;-65
2022/07/13 06:59:06;;;;;;;1.75;0.75;;;;;;;;;;5069821;23;20052;-65
2022/07/13 07:01:32;;;;;;;0.80;0.80;;;;;;;;;;5075512;28;20063;-65
2022/07/13 07:03:57;;;;;;;1.38;0.80;;;;;;;;;;5075160;28;20121;-65
2022/07/13 07:06:22;;;;;;;1.08;1.00;;;;;;;;;;5075118;28;20037;-65
2022/07/13 07:08:48;;;;;;;0.80;0.80;;;;;;;;;;5075100;28;20024;-65
2022/07/13 07:11:13;;;;;;;1.00;0.90;;;;;;;;;;5074760;28;20043;-65
2022/07/13 07:13:38;;;;;;;0.85;0.85;;;;;;;;;;5057619;28;20036;-65
2022/07/13 07:16:04;;;;;;;1.85;0.80;;;;;;;;;;5074649;28;20072;-65
2022/07/13 07:18:29;;;;;;;0.80;0.70;;;;;;;;;;5075180;28;20421;-65
2022/07/13 07:20:55;;;;;;;0.70;0.70;;;;;;;;;;5074539;28;20033;-65
2022/07/13 07:23:20;;;;;;;0.70;0.70;;;;;;;;;;5074764;28;20414;-65
2022/07/13 07:25:46;;;;;;;0.80;0.80;;;;;;;;;;5074738;28;20503;-65
2022/07/13 07:28:11;;;;;;;2.05;0.80;;;;;;;;;;5074469;28;20020;-65
2022/07/13 07:30:37;;;;;;;1.95;0.70;;;;;;;;;;5074711;28;20052;-65
2022/07/13 07:33:02;;;;;;;0.95;0.60;;;;;;;;;;5056611;28;20070;-65
2022/07/13 07:35:28;;;;;;;0.77;0.77;;;;;;;;;;5074889;28;20040;-65
2022/07/13 07:37:54;;;;;;;0.80;0.70;;;;;;;;;;5074863;28;20025;-65
2022/07/13 07:40:19;;;;;;;2.25;0.85;;;;;;;;;;5074537;28;20080;-65
2022/07/13 07:42:44;;;;;;;1.20;0.85;;;;;;;;;;5074398;28;20025;-65
2022/07/13 07:45:10;;;;;;;0.80;0.80;;;;;;;;;;5074451;28;20042;-65
2022/07/13 07:47:36;;;;;;;2.05;0.90;;;;;;;;;;5074422;28;20086;-65
2022/07/13 07:50:03;;;;;;;1.63;0.70;;;;;;;;;;5074362;28;20032;-65
2022/07/13 07:52:28;;;;;;;1.15;0.90;;;;;;;;;;5056488;28;20035;-65
2022/07/13 07:54:54;;;;;;;2.33;0.88;;;;;;;;;;5074545;28;20040;-65
2022/07/13 07:57:20;;;;;;;1.30;0.68;;;;;;;;;;5056225;28;20064;-65
2022/07/13 07:59:46;;;;;;;1.35;0.90;;;;;;;;;;5074008;28;20041;-65
2022/07/13 08:02:11;;;;;;;0.90;0.90;;;;;;;;;;5074200;28;20081;-65
2022/07/13 08:04:37;;;;;;;1.35;0.98;;;;;;;;;;5073693;28;20127;-65
2022/07/13 08:07:03;;;;;;;0.88;0.75;;;;;;;;;;5073821;28;20036;-65
2022/07/13 08:09:28;;;;;;;0.60;0.60;;;;;;;;;;5074392;28;20032;-65
2022/07/13 08:11:54;;;;;;;2.08;0.70;;;;;;;;;;5074060;28;20043;-65
2022/07/13 08:14:21;;;;;;;0.95;0.80;;;;;;;;;;5073756;28;20040;-65
2022/07/13 08:16:46;;;;;;;1.50;0.80;;;;;;;;;;5074282;28;20356;-65
2022/07/13 08:19:11;;;;;;;0.80;0.80;;;;;;;;;;5073999;28;20051;-65
2022/07/13 08:21:37;;;;;;;1.05;0.90;;;;;;;;;;5073658;28;20029;-65
2022/07/13 08:24:02;;;;;;;2.28;0.50;;;;;;;;;;5073573;28;20040;-65
2022/07/13 08:26:28;;;;;;;0.60;0.60;;;;;;;;;;5073905;28;20520;-65
2022/07/13 08:28:55;;;;;;;0.50;0.50;;;;;;;;;;5073904;28;20033;-65
2022/07/13 08:31:22;;;;;;;0.98;0.70;;;;;;;;;;5074167;28;20052;-65
2022/07/13 08:39:17;;;;;;;1.65;0.73;;;;;;;;;;5055777;28;20063;-65
2022/07/13 08:41:42;;;;;;;0.63;0.52;;;;;;;;;;5073530;28;20478;-65
2022/07/13 08:44:08;;;;;;;0.60;0.60;;;;;;;;;;5073649;28;20036;-65
2022/07/13 08:46:33;;;;;;;0.80;0.80;;;;;;;;;;5074033;28;20024;-65
2022/07/13 08:48:59;;;;;;;0.52;0.52;;;;;;;;;;5073680;28;20041;-65
2022/07/13 08:51:25;;;;;;;1.55;0.50;;;;;;;;;;5073670;28;20053;-65
2022/07/13 08:53:51;;;;;;;2.40;0.80;;;;;;;;;;5073396;28;20039;-65
2022/07/13 08:56:17;;;;;;;0.70;0.70;;;;;;;;;;5073629;28;20450;-65
2022/07/13 08:58:43;;;;;;;1.73;0.80;;;;;;;;;;5073157;28;20041;-65
2022/07/13 09:01:09;;;;;;;0.82;0.60;;;;;;;;;;5055312;28;20376;-65
2022/07/13 09:03:35;;;;;;;2.20;0.70;;;;;;;;;;5055260;28;20051;-65
2022/07/13 09:06:00;;;;;;;0.70;0.60;;;;;;;;;;5073230;28;20029;-65
2022/07/13 09:08:26;;;;;;;0.52;0.52;;;;;;;;;;5073209;28;20119;-65
2022/07/13 09:10:57;;;;;;;0.70;0.70;;;;;;;;;;5055916;28;20032;-65
2022/07/13 09:13:33;;;;;;;0.70;0.60;;;;;;;;;;5073182;28;20517;-65
2022/07/13 09:16:12;;;;;;;0.60;0.60;;;;;;;;;;5073443;28;20036;-65
2022/07/13 09:18:37;;;;;;;5.03;0.80;;;;;;;;;;5077211;28;20470;-65
2022/07/13 09:21:02;;;;;;;0.80;0.80;;;;;;;;;;5076899;28;20048;-65
2022/07/13 09:23:31;;;;;;;0.90;0.73;;;;;;;;;;5077027;28;20040;-65
2022/07/13 09:25:56;;;;;;;1.08;0.68;;;;;;;;;;5077076;28;20028;-65
2022/07/13 09:28:22;;;;;;;0.57;0.50;;;;;;;;;;5076727;28;20426;-65
2022/07/13 09:30:47;;;;;;;2.15;0.75;;;;;;;;;;5077019;28;20036;-65
2022/07/13 09:33:12;;;;;;;1.35;0.55;;;;;;;;;;5058710;28;20037;-65
2022/07/13 09:35:42;;;;;;;1.33;0.60;;;;;;;;;;5076944;28;20375;-65
2022/07/13 09:38:07;;;;;;;0.60;0.57;;;;;;;;;;5077144;28;20051;-65
2022/07/13 09:40:32;;;;;;;0.60;0.60;;;;;;;;;;5076818;28;20107;-65
2022/07/13 09:48:26;;;;;;;1.80;0.65;;;;;;;;;;5076400;28;20082;-65
2022/07/13 09:50:53;;;;;;;1.55;0.40;;;;;;;;;;5058410;28;20024;-65
2022/07/13 09:53:25;;;;;;;0.90;0.68;;;;;;;;;;5076625;28;20036;-65
2022/07/13 09:55:51;;;;;;;0.75;0.52;;;;;;;;;;5076847;28;20052;-65
2022/07/13 09:58:25;;;;;;;0.70;0.65;;;;;;;;;;5076493;28;20486;-65
2022/07/13 10:00:51;;;;;;;0.80;0.80;;;;;;;;;;5076222;28;20474;-65
2022/07/13 10:03:17;;;;;;;1.42;0.88;;;;;;;;;;5058473;28;20047;-65
2022/07/13 10:05:43;;;;;;;1.08;0.70;;;;;;;;;;5076349;28;20040;-65
2022/07/13 10:08:08;;;;;;;0.60;0.60;;;;;;;;;;5076334;28;20028;-65
2022/07/13 10:10:33;;;;;;;0.77;0.77;;;;;;;;;;5076554;28;20040;-65
2022/07/13 10:13:05;;;;;;;1.20;0.60;;;;;;;;;;5076001;28;20024;-65
2022/07/13 10:15:30;;;;;;;0.88;0.80;;;;;;;;;;5076200;28;20048;-65
2022/07/13 10:17:57;;;;;;;0.65;0.60;;;;;;;;;;5076150;28;20032;-65
2022/07/13 10:20:25;;;;;;;1.40;0.70;;;;;;;;;;5075812;28;20107;-65
2022/07/13 10:22:50;;;;;;;0.77;0.60;;;;;;;;;;5058429;28;20067;-65
2022/07/13 10:25:17;;;;;;;0.80;0.80;;;;;;;;;;5076015;28;20077;-65
2022/07/13 10:27:43;;;;;;;1.15;0.70;;;;;;;;;;5074906;28;20020;-65
2022/07/13 10:30:10;;;;;;;3.10;0.88;;;;;;;;;;5075570;28;20028;-65
2022/07/13 10:32:36;;;;;;;0.63;0.60;;;;;;;;;;5075888;28;20051;-65
2022/07/13 10:35:04;;;;;;;2.45;0.75;;;;;;;;;;5075872;28;20135;-65
2022/07/13 10:37:49;;;;;;;1.08;0.77;;;;;;;;;;5057914;28;20064;-65
2022/07/13 10:40:15;;;;;;;1.58;0.73;;;;;;;;;;5075842;28;20506;-65
2022/07/13 10:42:53;;;;;;;0.80;0.80;;;;;;;;;;5075349;28;20032;-65
2022/07/13 10:45:43;;;;;;;0.70;0.70;;;;;;;;;;5075601;28;20090;-65
2022/07/13 10:48:24;;;;;;;1.75;0.73;;;;;;;;;;5068138;28;20086;-65
2022/07/13 10:50:52;;;;;;;1.33;0.55;;;;;;;;;;5075566;28;20116;-65
2022/07/13 10:53:19;;;;;;;0.70;0.68;;;;;;;;;;5075195;28;20113;-65
2022/07/13 10:55:50;;;;;;;0.52;0.52;;;;;;;;;;5075403;28;20040;-65
2022/07/13 10:58:31;;;;;;;0.73;0.52;;;;;;;;;;5040670;28;20128;-65
2022/07/13 11:00:58;;;;;;;2.50;0.80;;;;;;;;;;5075277;28;20044;-65
2022/07/13 11:03:43;;;;;;;0.80;0.73;;;;;;;;;;5040417;28;20457;-65
2022/07/13 11:06:12;;;;;;;1.48;0.60;;;;;;;;;;5075209;28;20068;-65
2022/07/13 11:08:37;;;;;;;1.50;0.68;;;;;;;;;;5074902;28;20025;-65
2022/07/13 11:11:13;;;;;;;0.60;0.60;;;;;;;;;;5074812;28;20368;-65
2022/07/13 11:13:39;;;;;;;1.45;0.80;;;;;;;;;;5075049;28;20372;-65
2022/07/13 11:16:06;;;;;;;1.83;0.60;;;;;;;;;;5056816;28;20039;-65
2022/07/13 11:18:33;;;;;;;1.20;1.10;;;;;;;;;;5074673;28;20041;-65
2022/07/13 11:20:58;;;;;;;1.23;0.60;;;;;;;;;;5075188;28;20025;-65
2022/07/13 11:26:32;;;;;;;0.70;0.70;;;;;;;;;;5074803;28;20028;-65
2022/07/13 11:29:18;;;;;;;1.10;0.70;;;;;;;;;;5063808;28;20466;-65
2022/07/13 11:31:43;;;;;;;0.50;0.50;;;;;;;;;;5056186;28;20406;-65
2022/07/13 11:34:09;;;;;;;1.70;0.73;;;;;;;;;;5074411;28;20020;-65
2022/07/13 11:36:39;;;;;;;0.70;0.70;;;;;;;;;;5056615;28;20524;-65
2022/07/13 11:39:20;;;;;;;1.65;0.68;;;;;;;;;;5073973;28;20086;-65
2022/07/13 11:41:45;;;;;;;;;;;;;;;;;;5075209;28;20098;-65
2022/07/13 11:44:11;;;;;;;1.33;0.57;;;;;;;;;;5074436;28;19912;-65
2022/07/13 11:46:37;;;;;;;2.25;0.70;;;;;;;;;;5056213;28;20285;-65
2022/07/13 11:49:03;;;;;;;0.80;0.60;;;;;;;;;;5081108;23;20048;-66
2022/07/13 11:51:29;;;;;;;0.60;0.60;;;;;;;;;;5056151;28;20065;-65
2022/07/13 11:53:55;;;;;;;0.52;0.52;;;;;;;;;;5074032;28;20038;-65
2022/07/13 11:56:22;;;;;;;0.60;0.60;;;;;;;;;;5073997;28;20068;-65
2022/07/13 11:58:48;;;;;;;1.02;0.70;;;;;;;;;;5074255;28;20025;-65
2022/07/13 12:01:15;;;;;;;1.73;1.63;;;;;;;;;;5074484;28;20040;-65
2022/07/13 12:03:46;;;;;;;1.40;1.05;;;;;;;;;;5073872;28;20093;-65
2022/07/13 12:06:11;;;;;;;1.63;0.80;;;;;;;;;;5074170;28;20040;-65
2022/07/13 12:08:38;;;;;;;1.83;0.90;;;;;;;;;;5074109;28;20021;-65
2022/07/13 12:11:05;;;;;;;1.10;1.00;;;;;;;;;;5073758;28;20463;-65
2022/07/13 12:13:33;;;;;;;0.90;0.90;;;;;;;;;;5074357;28;20481;-65
2022/07/13 12:15:58;;;;;;;1.50;0.80;;;;;;;;;;5073735;28;20386;-65
2022/07/13 12:18:24;;;;;;;0.70;0.70;;;;;;;;;;5056191;28;20124;-65
2022/07/13 12:20:49;;;;;;;2.33;1.00;;;;;;;;;;5055700;28;20032;-65
2022/07/13 12:23:15;;;;;;;0.80;0.80;;;;;;;;;;5073584;28;20039;-65
2022/07/13 12:25:40;;;;;;;1.25;0.80;;;;;;;;;;5055797;28;20032;-72
2022/07/13 12:28:08;;;;;;;1.50;0.70;;;;;;;;;;5073915;28;20032;-73
2022/07/13 12:30:34;;;;;;;1.20;0.70;;;;;;;;;;5073598;28;20043;-73
2022/07/13 12:33:00;;;;;;;0.73;0.73;;;;;;;;;;5073871;28;20032;-72
2022/07/13 12:35:36;;;;;;;1.50;0.80;;;;;;;;;;5074100;28;20036;-72
2022/07/13 12:38:04;;;;;;;1.27;1.00;;;;;;;;;;5073495;28;20124;-73
2022/07/13 12:40:36;;;;;;;0.80;0.80;;;;;;;;;;5055489;28;20055;-73
2022/07/13 12:43:02;;;;;;;0.60;0.60;;;;;;;;;;5055451;28;20036;-72
2022/07/13 12:45:31;;;;;;;1.55;0.95;;;;;;;;;;5074042;28;20016;-73
2022/07/13 12:47:57;;;;;;;1.63;0.73;;;;;;;;;;5073967;28;20040;-72
2022/07/13 12:50:26;;;;;;;0.80;0.80;;;;;;;;;;5073224;28;20083;-73
2022/07/13 12:52:58;;;;;;;4.90;0.80;;;;;;;;;;5077078;28;20059;-73
2022/07/13 12:55:24;;;;;;;0.65;0.63;;;;;;;;;;5077736;28;20043;-73
2022/07/13 12:57:50;;;;;;;0.85;0.85;;;;;;;;;;5059482;28;20116;-73
2022/07/13 13:00:21;;;;;;;0.73;0.73;;;;;;;;;;5077630;28;20120;-73
2022/07/13 13:02:47;;;;;;;1.13;0.73;;;;;;;;;;5077219;28;20040;-72
2022/07/13 13:05:12;;;;;;;1.20;0.90;;;;;;;;;;5077823;28;20039;-72
2022/07/13 13:07:39;;;;;;;0.98;0.98;;;;;;;;;;5077102;28;20037;-72
2022/07/13 13:10:05;;;;;;;2.63;0.80;;;;;;;;;;5077500;28;20521;-75
2022/07/13 13:12:31;;;;;;;2.63;0.90;;;;;;;;;;5077312;28;20475;-72
2022/07/13 13:14:57;;;;;;;0.82;0.65;;;;;;;;;;5077340;28;20025;-72
2022/07/13 13:17:23;;;;;;;1.27;0.80;;;;;;;;;;5077318;28;20041;-72
2022/07/13 13:19:48;;;;;;;1.00;1.00;;;;;;;;;;5077522;28;20029;-72
2022/07/13 13:22:14;;;;;;;0.90;0.90;;;;;;;;;;5077202;28;20097;-72
2022/07/13 13:24:39;;;;;;;1.75;0.98;;;;;;;;;;5058983;28;20035;-72
2022/07/13 13:27:05;;;;;;;2.33;1.17;;;;;;;;;;5059413;28;20036;-72
2022/07/13 13:32:16;;;;;;;0.85;0.65;;;;;;;;;;5077266;28;20041;-72
2022/07/13 13:34:41;;;;;;;4.10;1.05;;;;;;;;;;5058747;28;20039;-72
2022/07/13 13:37:07;;;;;;;1.20;0.90;;;;;;;;;;5058814;28;20564;-72
2022/07/13 13:39:32;;;;;;;1.50;0.90;;;;;;;;;;5058254;28;20033;-72
2022/07/13 13:41:58;;;;;;;2.10;0.85;;;;;;;;;;5075453;28;20039;-72
2022/07/13 13:44:23;;;;;;;1.00;1.00;;;;;;;;;;5076000;28;20035;-72
2022/07/13 13:46:49;;;;;;;1.67;1.15;;;;;;;;;;5075755;28;20039;-72
2022/07/13 13:49:18;;;;;;;1.13;1.00;;;;;;;;;;5057099;28;20071;-73
2022/07/13 13:51:47;;;;;;;1.00;0.90;;;;;;;;;;5058673;28;20040;-73
2022/07/13 13:54:13;;;;;;;0.93;0.93;;;;;;;;;;5076310;28;20032;-72
2022/07/13 13:56:39;;;;;;;1.65;1.10;;;;;;;;;;5076530;28;20036;-72
2022/07/13 13:59:05;;;;;;;1.20;1.10;;;;;;;;;;5076256;28;20482;-73
2022/07/13 14:01:30;;;;;;;1.10;0.80;;;;;;;;;;5076206;28;20112;-73
2022/07/13 14:03:56;;;;;;;1.35;1.10;;;;;;;;;;5076121;28;20035;-72
2022/07/13 14:06:21;;;;;;;1.20;1.10;;;;;;;;;;5076147;28;20522;-72
2022/07/13 14:08:49;;;;;;;1.20;1.10;;;;;;;;;;5058133;28;20028;-72
2022/07/13 14:11:16;;;;;;;1.02;1.00;;;;;;;;;;5058085;28;20036;-72
2022/07/13 14:13:41;;;;;;;1.02;1.02;;;;;;;;;;5076280;28;20021;-73
2022/07/13 14:16:07;;;;;;;1.15;1.08;;;;;;;;;;5075907;28;20055;-73
2022/07/13 14:18:33;;;;;;;1.80;1.13;;;;;;;;;;5076201;28;20073;-73
2022/07/13 14:20:59;;;;;;;2.13;1.30;;;;;;;;;;5076104;28;20454;-73
2022/07/13 14:23:24;;;;;;;0.90;0.90;;;;;;;;;;5075748;28;20032;-73
2022/07/13 14:25:50;;;;;;;0.88;0.85;;;;;;;;;;5076833;28;20393;-73
2022/07/13 14:28:16;;;;;;;1.73;0.95;;;;;;;;;;5075692;28;20086;-72
2022/07/13 14:30:42;;;;;;;1.02;1.02;;;;;;;;;;5075658;28;20393;-73
2022/07/13 14:33:07;;;;;;;2.38;1.00;;;;;;;;;;5041102;28;20024;-72
2022/07/13 14:35:32;;;;;;;1.60;1.40;;;;;;;;;;5057757;28;20040;-73
2022/07/13 14:37:58;;;;;;;0.93;0.93;;;;;;;;;;5075510;28;20102;-73
2022/07/13 14:40:24;;;;;;;3.25;1.08;;;;;;;;;;5075456;28;20036;-73
2022/07/13 14:42:49;;;;;;;1.70;1.20;;;;;;;;;;5075650;28;20040;-73
2022/07/13 14:45:15;;;;;;;1.13;1.13;;;;;;;;;;5075632;28;20487;-73
2022/07/13 14:47:40;;;;;;;2.97;1.08;;;;;;;;;;5075357;28;20356;-73
2022/07/13 14:50:06;;;;;;;1.05;1.05;;;;;;;;;;5075327;28;20035;-72
2022/07/13 14:52:31;;;;;;;1.02;1.02;;;;;;;;;;5075492;28;20028;-73
2022/07/13 14:54:58;;;;;;;1.15;1.10;;;;;;;;;;5075708;28;20115;-72